QTR22Y OTHH-EHAM
Flight info
| Callsign | QTR22Y |
|---|---|
| Flight time | N/A |
| Altitude | 32000 |
| Route | LUBET L934 DAVUS L602 ALPET L718 DEBNI DCT SEVKU L718 KABAN UL718 ULSAB UG8 GEM UT32 BUK UL602 MAKOL DCT KOMAN DCT BEGLA DCT UBUXI DCT DITIS DCT VARIK DCT KATCE DCT NORKU |
| Aircraft | B77W/H-SDE1E2E3FGHIJ2J3J4J5M1RWXY/LB1D1 |
Departure
| Time | 2026-02-19 10:19 |
|---|---|
| Airport | Hamad International Airport (OTHH) |
Arrival
| Time | N/A |
|---|---|
| Airport | Amsterdam Airport Schiphol (EHAM) |
| Time | Latitude | Longitude | Altitude | Speed | Heading |
|---|---|---|---|---|---|
| 2026-02-19 10:02 | 25.26540 | 51.61292 | 27 ft | 0 kts | 248° |
| 2026-02-19 10:09 | 25.26542 | 51.61300 | 27 ft | 2 kts | 248° |
| 2026-02-19 10:09 | 25.26550 | 51.61320 | 27 ft | 3 kts | 248° |
| 2026-02-19 10:10 | 25.26556 | 51.61339 | 26 ft | 3 kts | 244° |
| 2026-02-19 10:10 | 25.26565 | 51.61357 | 24 ft | 3 kts | 228° |
| 2026-02-19 10:10 | 25.26578 | 51.61370 | 24 ft | 3 kts | 204° |
| 2026-02-19 10:10 | 25.26592 | 51.61375 | 25 ft | 3 kts | 177° |
| 2026-02-19 10:11 | 25.26610 | 51.61371 | 26 ft | 3 kts | 159° |
| 2026-02-19 10:11 | 25.26628 | 51.61363 | 26 ft | 3 kts | 156° |
| 2026-02-19 10:11 | 25.26636 | 51.61359 | 25 ft | 0 kts | 158° |
| 2026-02-19 10:12 | 25.26635 | 51.61359 | 26 ft | 0 kts | 158° |
| 2026-02-19 10:13 | 25.26621 | 51.61365 | 25 ft | 6 kts | 158° |
| 2026-02-19 10:13 | 25.26558 | 51.61393 | 26 ft | 11 kts | 158° |
| 2026-02-19 10:13 | 25.26488 | 51.61422 | 27 ft | 11 kts | 160° |
| 2026-02-19 10:13 | 25.26422 | 51.61458 | 27 ft | 11 kts | 146° |
| 2026-02-19 10:14 | 25.26400 | 51.61544 | 27 ft | 15 kts | 73° |
| 2026-02-19 10:14 | 25.26489 | 51.61790 | 27 ft | 12 kts | 72° |
| 2026-02-19 10:14 | 25.26465 | 51.61869 | 26 ft | 12 kts | 150° |
| 2026-02-19 10:15 | 25.26388 | 51.61904 | 27 ft | 12 kts | 158° |
| 2026-02-19 10:15 | 25.26311 | 51.61936 | 27 ft | 12 kts | 161° |
| 2026-02-19 10:15 | 25.26236 | 51.61974 | 27 ft | 12 kts | 144° |
| 2026-02-19 10:15 | 25.26208 | 51.62059 | 27 ft | 12 kts | 110° |
| 2026-02-19 10:16 | 25.26145 | 51.62118 | 27 ft | 12 kts | 156° |
| 2026-02-19 10:16 | 25.25895 | 51.62230 | 27 ft | 22 kts | 158° |
| 2026-02-19 10:16 | 25.25751 | 51.62294 | 27 ft | 22 kts | 158° |
| 2026-02-19 10:17 | 25.25620 | 51.62351 | 27 ft | 20 kts | 158° |
| 2026-02-19 10:17 | 25.25517 | 51.62397 | 27 ft | 11 kts | 158° |
| 2026-02-19 10:17 | 25.25479 | 51.62466 | 27 ft | 12 kts | 82° |
| 2026-02-19 10:17 | 25.25513 | 51.62573 | 27 ft | 16 kts | 63° |
| 2026-02-19 10:18 | 25.25588 | 51.62655 | 28 ft | 11 kts | 23° |
| 2026-02-19 10:18 | 25.25634 | 51.62654 | 28 ft | 0 kts | 340° |
| 2026-02-19 10:18 | 25.25661 | 51.62643 | 28 ft | 23 kts | 340° |
| 2026-02-19 10:18 | 25.26086 | 51.62456 | 27 ft | 107 kts | 337° |
| 2026-02-19 10:19 | 25.27014 | 51.62048 | 29 ft | 177 kts | 338° |
| 2026-02-19 10:19 | 25.28273 | 51.61509 | 444 ft | 190 kts | 340° |
| 2026-02-19 10:19 | 25.29513 | 51.60968 | 1281 ft | 196 kts | 339° |
| 2026-02-19 10:19 | 25.30790 | 51.60398 | 1988 ft | 203 kts | 340° |
| 2026-02-19 10:20 | 25.32190 | 51.59770 | 2303 ft | 232 kts | 339° |
| 2026-02-19 10:20 | 25.35475 | 51.59586 | 3326 ft | 255 kts | 19° |
| 2026-02-19 10:20 | 25.37186 | 51.60208 | 3915 ft | 260 kts | 19° |
| 2026-02-19 10:21 | 25.38948 | 51.60784 | 4470 ft | 268 kts | 16° |
| 2026-02-19 10:21 | 25.42592 | 51.60627 | 6204 ft | 274 kts | 329° |
| 2026-02-19 10:21 | 25.44186 | 51.59480 | 6951 ft | 280 kts | 327° |
| 2026-02-19 10:22 | 25.45817 | 51.58284 | 7858 ft | 282 kts | 328° |
| 2026-02-19 10:22 | 25.47477 | 51.57129 | 8758 ft | 283 kts | 330° |
| 2026-02-19 10:22 | 25.49187 | 51.56009 | 9644 ft | 287 kts | 330° |
| 2026-02-19 10:22 | 25.50926 | 51.54888 | 10416 ft | 294 kts | 331° |
| 2026-02-19 10:23 | 25.52755 | 51.53711 | 10753 ft | 317 kts | 330° |
| 2026-02-19 10:23 | 25.54743 | 51.52425 | 10960 ft | 344 kts | 330° |
| 2026-02-19 10:23 | 25.56884 | 51.51029 | 11217 ft | 366 kts | 330° |
| 2026-02-19 10:23 | 25.59102 | 51.49576 | 11565 ft | 374 kts | 330° |
| 2026-02-19 10:24 | 25.61367 | 51.48089 | 11938 ft | 381 kts | 330° |
| 2026-02-19 10:24 | 25.65950 | 51.45075 | 12912 ft | 384 kts | 330° |
| 2026-02-19 10:24 | 25.68253 | 51.43561 | 13379 ft | 386 kts | 330° |
| 2026-02-19 10:25 | 25.70575 | 51.42034 | 13798 ft | 389 kts | 330° |
| 2026-02-19 10:25 | 25.72907 | 51.40497 | 14197 ft | 391 kts | 330° |
| 2026-02-19 10:25 | 25.75224 | 51.38970 | 14597 ft | 393 kts | 330° |
| 2026-02-19 10:25 | 25.77579 | 51.37418 | 15006 ft | 395 kts | 330° |
| 2026-02-19 10:26 | 25.79953 | 51.35854 | 15454 ft | 397 kts | 330° |
| 2026-02-19 10:26 | 25.82322 | 51.34290 | 15889 ft | 398 kts | 330° |
| 2026-02-19 10:26 | 25.84707 | 51.32713 | 16278 ft | 400 kts | 330° |
| 2026-02-19 10:26 | 25.87108 | 51.31125 | 16646 ft | 404 kts | 330° |
| 2026-02-19 10:27 | 25.88706 | 51.30069 | 16963 ft | 403 kts | 330° |
| 2026-02-19 10:27 | 25.91117 | 51.28473 | 17374 ft | 404 kts | 330° |
| 2026-02-19 10:27 | 25.93543 | 51.26867 | 17700 ft | 407 kts | 330° |
| 2026-02-19 10:27 | 25.95980 | 51.25253 | 18042 ft | 409 kts | 330° |
| 2026-02-19 10:28 | 25.98433 | 51.23628 | 18411 ft | 411 kts | 330° |
| 2026-02-19 10:28 | 26.03375 | 51.20350 | 19033 ft | 418 kts | 330° |
| 2026-02-19 10:28 | 26.05887 | 51.18684 | 19637 ft | 422 kts | 330° |
| 2026-02-19 10:29 | 26.08413 | 51.17008 | 20338 ft | 424 kts | 329° |
| 2026-02-19 10:29 | 26.10956 | 51.15320 | 20955 ft | 428 kts | 329° |
| 2026-02-19 10:29 | 26.13534 | 51.13606 | 21512 ft | 434 kts | 329° |
| 2026-02-19 10:29 | 26.16137 | 51.11874 | 22087 ft | 438 kts | 328° |
| 2026-02-19 10:30 | 26.18767 | 51.10122 | 22626 ft | 443 kts | 328° |
| 2026-02-19 10:30 | 26.21428 | 51.08351 | 23143 ft | 448 kts | 328° |
| 2026-02-19 10:30 | 26.24107 | 51.06539 | 23652 ft | 453 kts | 326° |
| 2026-02-19 10:30 | 26.26731 | 51.04572 | 24077 ft | 456 kts | 322° |
| 2026-02-19 10:31 | 26.29239 | 51.02398 | 24530 ft | 458 kts | 319° |
| 2026-02-19 10:31 | 26.31675 | 51.00100 | 24996 ft | 460 kts | 317° |
| 2026-02-19 10:31 | 26.34062 | 50.97714 | 25428 ft | 462 kts | 316° |
| 2026-02-19 10:31 | 26.36449 | 50.95285 | 25835 ft | 466 kts | 316° |
| 2026-02-19 10:32 | 26.38873 | 50.92874 | 26254 ft | 469 kts | 317° |
| 2026-02-19 10:32 | 26.43873 | 50.88125 | 27113 ft | 475 kts | 318° |
| 2026-02-19 10:32 | 26.46417 | 50.85758 | 27522 ft | 478 kts | 318° |
| 2026-02-19 10:33 | 26.48975 | 50.83369 | 27949 ft | 480 kts | 317° |
| 2026-02-19 10:33 | 26.51533 | 50.80965 | 28368 ft | 482 kts | 317° |
| 2026-02-19 10:33 | 26.54105 | 50.78540 | 28748 ft | 485 kts | 317° |
| 2026-02-19 10:33 | 26.56686 | 50.76101 | 29101 ft | 488 kts | 317° |
| 2026-02-19 10:34 | 26.59287 | 50.73642 | 29425 ft | 491 kts | 317° |
| 2026-02-19 10:34 | 26.61902 | 50.71172 | 29759 ft | 494 kts | 317° |
| 2026-02-19 10:34 | 26.64534 | 50.68687 | 30113 ft | 495 kts | 317° |
| 2026-02-19 10:34 | 26.67172 | 50.66206 | 30528 ft | 494 kts | 317° |
| 2026-02-19 10:35 | 26.69798 | 50.63747 | 31022 ft | 491 kts | 317° |
| 2026-02-19 10:35 | 26.72370 | 50.61341 | 31502 ft | 488 kts | 317° |
| 2026-02-19 10:35 | 26.74971 | 50.58905 | 31963 ft | 485 kts | 317° |
| 2026-02-19 10:35 | 26.77548 | 50.56487 | 32386 ft | 484 kts | 317° |
| 2026-02-19 10:36 | 26.80123 | 50.54067 | 32809 ft | 482 kts | 316° |
| 2026-02-19 10:36 | 26.85240 | 50.49250 | 33647 ft | 479 kts | 316° |
| 2026-02-19 10:36 | 26.87788 | 50.46851 | 34051 ft | 478 kts | 316° |
| 2026-02-19 10:37 | 26.90331 | 50.44454 | 34402 ft | 476 kts | 316° |
| 2026-02-19 10:37 | 26.92856 | 50.42069 | 34768 ft | 474 kts | 316° |
| 2026-02-19 10:37 | 26.95375 | 50.39684 | 35111 ft | 472 kts | 316° |
| 2026-02-19 10:37 | 26.97874 | 50.37315 | 35454 ft | 470 kts | 316° |
| 2026-02-19 10:38 | 27.00366 | 50.34951 | 35804 ft | 468 kts | 316° |
| 2026-02-19 10:38 | 27.02858 | 50.32587 | 36027 ft | 469 kts | 316° |
| 2026-02-19 10:38 | 27.05361 | 50.30208 | 36056 ft | 473 kts | 316° |
| 2026-02-19 10:39 | 27.10374 | 50.25448 | 36078 ft | 470 kts | 316° |
| 2026-02-19 10:39 | 27.15333 | 50.20735 | 36083 ft | 466 kts | 316° |
| 2026-02-19 10:40 | 27.20452 | 50.16257 | 36086 ft | 467 kts | 320° |
| 2026-02-19 10:40 | 27.28362 | 50.09843 | 36092 ft | 468 kts | 320° |
| 2026-02-19 10:41 | 27.33603 | 50.05503 | 36090 ft | 468 kts | 320° |
| 2026-02-19 10:41 | 27.38818 | 50.01106 | 36092 ft | 469 kts | 319° |
| 2026-02-19 10:42 | 27.43958 | 49.96583 | 36088 ft | 469 kts | 318° |
| 2026-02-19 10:42 | 27.49082 | 49.92034 | 36089 ft | 470 kts | 318° |